sensor_id;sensor_type;location;lat;lon;timestamp;P1;durP1;ratioP1;P2;durP2;ratioP2
14799;SDS011;7491;57.750;11.970;2023-06-24T00:00:21;21.80;;;10.65;;
14799;SDS011;7491;57.750;11.970;2023-06-24T00:02:48;22.27;;;11.30;;
14799;SDS011;7491;57.750;11.970;2023-06-24T00:05:17;24.52;;;10.55;;
14799;SDS011;7491;57.750;11.970;2023-06-24T00:07:44;19.23;;;9.77;;
14799;SDS011;7491;57.750;11.970;2023-06-24T00:10:11;17.40;;;9.88;;
14799;SDS011;7491;57.750;11.970;2023-06-24T00:12:38;18.80;;;10.82;;
14799;SDS011;7491;57.750;11.970;2023-06-24T00:15:06;22.02;;;10.48;;
14799;SDS011;7491;57.750;11.970;2023-06-24T00:17:36;18.98;;;9.43;;
14799;SDS011;7491;57.750;11.970;2023-06-24T00:20:04;17.80;;;9.35;;
14799;SDS011;7491;57.750;11.970;2023-06-24T00:22:35;17.42;;;9.65;;
14799;SDS011;7491;57.750;11.970;2023-06-24T00:25:02;22.95;;;10.35;;
14799;SDS011;7491;57.750;11.970;2023-06-24T00:27:30;17.27;;;10.27;;
14799;SDS011;7491;57.750;11.970;2023-06-24T00:29:57;16.63;;;10.23;;
14799;SDS011;7491;57.750;11.970;2023-06-24T00:32:23;19.45;;;10.88;;
14799;SDS011;7491;57.750;11.970;2023-06-24T00:34:50;23.20;;;10.70;;
14799;SDS011;7491;57.750;11.970;2023-06-24T00:37:17;17.60;;;10.02;;
14799;SDS011;7491;57.750;11.970;2023-06-24T00:39:45;16.30;;;9.75;;
14799;SDS011;7491;57.750;11.970;2023-06-24T00:42:12;17.02;;;9.80;;
14799;SDS011;7491;57.750;11.970;2023-06-24T00:44:41;14.45;;;9.35;;
14799;SDS011;7491;57.750;11.970;2023-06-24T00:47:08;20.38;;;9.35;;
14799;SDS011;7491;57.750;11.970;2023-06-24T00:49:35;19.63;;;10.00;;
14799;SDS011;7491;57.750;11.970;2023-06-24T00:52:02;23.48;;;10.88;;
14799;SDS011;7491;57.750;11.970;2023-06-24T00:54:29;20.17;;;10.02;;
14799;SDS011;7491;57.750;11.970;2023-06-24T00:56:58;18.55;;;10.15;;
14799;SDS011;7491;57.750;11.970;2023-06-24T00:59:26;25.80;;;10.60;;
14799;SDS011;7491;57.750;11.970;2023-06-24T01:01:57;23.33;;;10.23;;
14799;SDS011;7491;57.750;11.970;2023-06-24T01:04:26;16.38;;;10.13;;
14799;SDS011;7491;57.750;11.970;2023-06-24T01:06:54;20.15;;;10.02;;
14799;SDS011;7491;57.750;11.970;2023-06-24T01:09:22;22.45;;;10.25;;
14799;SDS011;7491;57.750;11.970;2023-06-24T01:11:50;17.45;;;9.55;;
14799;SDS011;7491;57.750;11.970;2023-06-24T01:14:21;20.15;;;10.18;;
14799;SDS011;7491;57.750;11.970;2023-06-24T01:16:51;17.67;;;10.07;;
14799;SDS011;7491;57.750;11.970;2023-06-24T01:19:37;18.00;;;9.27;;
14799;SDS011;7491;57.750;11.970;2023-06-24T01:22:21;18.65;;;11.60;;
14799;SDS011;7491;57.750;11.970;2023-06-24T01:25:08;16.35;;;9.23;;
14799;SDS011;7491;57.750;11.970;2023-06-24T01:30:52;19.63;;;9.13;;
14799;SDS011;7491;57.750;11.970;2023-06-24T01:33:35;19.55;;;9.68;;
14799;SDS011;7491;57.750;11.970;2023-06-24T01:36:05;17.42;;;10.02;;
14799;SDS011;7491;57.750;11.970;2023-06-24T01:38:39;20.15;;;9.43;;
14799;SDS011;7491;57.750;11.970;2023-06-24T01:41:13;18.73;;;9.43;;
14799;SDS011;7491;57.750;11.970;2023-06-24T01:43:45;14.48;;;9.75;;
14799;SDS011;7491;57.750;11.970;2023-06-24T01:46:14;16.42;;;9.27;;
14799;SDS011;7491;57.750;11.970;2023-06-24T01:48:44;16.80;;;9.80;;
14799;SDS011;7491;57.750;11.970;2023-06-24T01:51:13;17.58;;;8.93;;
14799;SDS011;7491;57.750;11.970;2023-06-24T01:53:48;20.42;;;9.65;;
14799;SDS011;7491;57.750;11.970;2023-06-24T01:56:18;17.30;;;9.20;;
14799;SDS011;7491;57.750;11.970;2023-06-24T01:58:48;21.05;;;10.25;;
14799;SDS011;7491;57.750;11.970;2023-06-24T02:01:18;14.98;;;8.68;;
14799;SDS011;7491;57.750;11.970;2023-06-24T02:03:47;18.10;;;9.48;;
14799;SDS011;7491;57.750;11.970;2023-06-24T02:06:15;18.70;;;9.85;;
14799;SDS011;7491;57.750;11.970;2023-06-24T02:08:43;19.75;;;9.98;;
14799;SDS011;7491;57.750;11.970;2023-06-24T02:11:12;20.15;;;10.60;;
14799;SDS011;7491;57.750;11.970;2023-06-24T02:13:39;21.52;;;11.88;;
14799;SDS011;7491;57.750;11.970;2023-06-24T02:16:09;19.92;;;10.85;;
14799;SDS011;7491;57.750;11.970;2023-06-24T02:18:37;20.17;;;11.13;;
14799;SDS011;7491;57.750;11.970;2023-06-24T02:21:09;16.20;;;11.23;;
14799;SDS011;7491;57.750;11.970;2023-06-24T02:23:37;25.02;;;11.00;;
14799;SDS011;7491;57.750;11.970;2023-06-24T02:26:04;24.20;;;11.90;;
14799;SDS011;7491;57.750;11.970;2023-06-24T02:28:33;16.95;;;10.65;;
14799;SDS011;7491;57.750;11.970;2023-06-24T02:31:02;17.48;;;11.20;;
14799;SDS011;7491;57.750;11.970;2023-06-24T02:33:29;20.08;;;12.05;;
14799;SDS011;7491;57.750;11.970;2023-06-24T02:35:56;18.05;;;12.48;;
14799;SDS011;7491;57.750;11.970;2023-06-24T02:38:25;22.88;;;12.50;;
14799;SDS011;7491;57.750;11.970;2023-06-24T02:40:52;17.98;;;11.20;;
14799;SDS011;7491;57.750;11.970;2023-06-24T02:43:18;18.38;;;11.43;;
14799;SDS011;7491;57.750;11.970;2023-06-24T02:45:45;20.27;;;11.82;;
14799;SDS011;7491;57.750;11.970;2023-06-24T02:48:14;22.77;;;13.20;;
14799;SDS011;7491;57.750;11.970;2023-06-24T02:50:42;20.52;;;12.45;;
14799;SDS011;7491;57.750;11.970;2023-06-24T02:53:10;19.45;;;11.07;;
14799;SDS011;7491;57.750;11.970;2023-06-24T02:55:39;25.38;;;13.10;;
14799;SDS011;7491;57.750;11.970;2023-06-24T02:58:07;24.08;;;12.27;;
14799;SDS011;7491;57.750;11.970;2023-06-24T03:00:34;23.45;;;11.55;;
14799;SDS011;7491;57.750;11.970;2023-06-24T03:03:01;20.25;;;11.90;;
14799;SDS011;7491;57.750;11.970;2023-06-24T03:05:29;20.13;;;11.98;;
14799;SDS011;7491;57.750;11.970;2023-06-24T03:07:57;24.27;;;12.45;;
14799;SDS011;7491;57.750;11.970;2023-06-24T03:10:25;20.10;;;11.80;;
14799;SDS011;7491;57.750;11.970;2023-06-24T03:12:53;21.27;;;12.40;;
14799;SDS011;7491;57.750;11.970;2023-06-24T03:15:20;20.55;;;12.27;;
14799;SDS011;7491;57.750;11.970;2023-06-24T03:17:47;17.23;;;12.13;;
14799;SDS011;7491;57.750;11.970;2023-06-24T03:20:14;21.50;;;12.40;;
14799;SDS011;7491;57.750;11.970;2023-06-24T03:22:41;20.90;;;11.93;;
14799;SDS011;7491;57.750;11.970;2023-06-24T03:25:08;23.70;;;12.57;;
14799;SDS011;7491;57.750;11.970;2023-06-24T03:27:35;25.48;;;12.88;;
14799;SDS011;7491;57.750;11.970;2023-06-24T03:30:03;19.10;;;11.73;;
14799;SDS011;7491;57.750;11.970;2023-06-24T03:32:31;19.90;;;11.07;;
14799;SDS011;7491;57.750;11.970;2023-06-24T03:35:00;21.10;;;12.13;;
14799;SDS011;7491;57.750;11.970;2023-06-24T03:37:26;17.40;;;12.00;;
14799;SDS011;7491;57.750;11.970;2023-06-24T03:39:53;19.60;;;12.45;;
14799;SDS011;7491;57.750;11.970;2023-06-24T03:42:21;21.02;;;13.15;;
14799;SDS011;7491;57.750;11.970;2023-06-24T03:44:48;18.08;;;12.15;;
14799;SDS011;7491;57.750;11.970;2023-06-24T03:47:16;20.27;;;11.98;;
14799;SDS011;7491;57.750;11.970;2023-06-24T03:49:43;23.00;;;12.25;;
14799;SDS011;7491;57.750;11.970;2023-06-24T03:52:10;19.27;;;12.35;;
14799;SDS011;7491;57.750;11.970;2023-06-24T03:54:37;17.02;;;12.35;;
14799;SDS011;7491;57.750;11.970;2023-06-24T03:57:05;23.60;;;11.30;;
14799;SDS011;7491;57.750;11.970;2023-06-24T03:59:33;21.50;;;12.20;;
14799;SDS011;7491;57.750;11.970;2023-06-24T04:02:00;18.13;;;11.60;;
14799;SDS011;7491;57.750;11.970;2023-06-24T04:04:28;24.33;;;12.43;;
14799;SDS011;7491;57.750;11.970;2023-06-24T04:06:55;23.90;;;13.52;;
14799;SDS011;7491;57.750;11.970;2023-06-24T04:09:21;20.77;;;12.93;;
14799;SDS011;7491;57.750;11.970;2023-06-24T04:11:49;19.70;;;12.15;;
14799;SDS011;7491;57.750;11.970;2023-06-24T04:14:15;21.92;;;12.20;;
14799;SDS011;7491;57.750;11.970;2023-06-24T04:16:42;23.48;;;12.93;;
14799;SDS011;7491;57.750;11.970;2023-06-24T04:19:09;22.15;;;12.55;;
14799;SDS011;7491;57.750;11.970;2023-06-24T04:21:37;24.90;;;12.82;;
14799;SDS011;7491;57.750;11.970;2023-06-24T04:24:04;21.55;;;11.57;;
14799;SDS011;7491;57.750;11.970;2023-06-24T04:26:31;24.13;;;12.82;;
14799;SDS011;7491;57.750;11.970;2023-06-24T04:28:58;19.33;;;12.63;;
14799;SDS011;7491;57.750;11.970;2023-06-24T04:31:25;22.67;;;12.88;;
14799;SDS011;7491;57.750;11.970;2023-06-24T04:33:53;20.75;;;12.57;;
14799;SDS011;7491;57.750;11.970;2023-06-24T04:36:19;20.55;;;11.60;;
14799;SDS011;7491;57.750;11.970;2023-06-24T04:38:48;20.85;;;11.52;;
14799;SDS011;7491;57.750;11.970;2023-06-24T04:41:14;20.48;;;12.48;;
14799;SDS011;7491;57.750;11.970;2023-06-24T04:43:43;20.95;;;12.65;;
14799;SDS011;7491;57.750;11.970;2023-06-24T04:46:10;17.48;;;11.65;;
14799;SDS011;7491;57.750;11.970;2023-06-24T04:48:37;18.77;;;11.23;;
14799;SDS011;7491;57.750;11.970;2023-06-24T04:51:03;21.38;;;11.85;;
14799;SDS011;7491;57.750;11.970;2023-06-24T04:53:30;19.30;;;11.20;;
14799;SDS011;7491;57.750;11.970;2023-06-24T04:55:58;16.88;;;11.40;;
14799;SDS011;7491;57.750;11.970;2023-06-24T04:58:25;21.63;;;12.43;;
14799;SDS011;7491;57.750;11.970;2023-06-24T05:00:52;23.52;;;11.85;;
14799;SDS011;7491;57.750;11.970;2023-06-24T05:03:19;15.73;;;11.05;;
14799;SDS011;7491;57.750;11.970;2023-06-24T05:05:46;23.33;;;12.38;;
14799;SDS011;7491;57.750;11.970;2023-06-24T05:08:13;17.00;;;11.35;;
14799;SDS011;7491;57.750;11.970;2023-06-24T05:10:39;13.88;;;10.43;;
14799;SDS011;7491;57.750;11.970;2023-06-24T05:13:07;24.70;;;11.85;;
14799;SDS011;7491;57.750;11.970;2023-06-24T05:15:34;17.23;;;10.90;;
14799;SDS011;7491;57.750;11.970;2023-06-24T05:18:01;18.15;;;9.98;;
14799;SDS011;7491;57.750;11.970;2023-06-24T05:20:28;18.05;;;10.82;;
14799;SDS011;7491;57.750;11.970;2023-06-24T05:22:55;22.58;;;11.35;;
14799;SDS011;7491;57.750;11.970;2023-06-24T05:25:21;18.60;;;10.60;;
14799;SDS011;7491;57.750;11.970;2023-06-24T05:27:48;15.13;;;10.43;;
14799;SDS011;7491;57.750;11.970;2023-06-24T05:30:17;20.77;;;10.35;;
14799;SDS011;7491;57.750;11.970;2023-06-24T05:32:44;17.02;;;10.00;;
14799;SDS011;7491;57.750;11.970;2023-06-24T05:35:10;17.02;;;9.73;;
14799;SDS011;7491;57.750;11.970;2023-06-24T05:37:37;13.25;;;9.70;;
14799;SDS011;7491;57.750;11.970;2023-06-24T05:40:04;17.52;;;9.23;;
14799;SDS011;7491;57.750;11.970;2023-06-24T05:42:33;13.10;;;8.35;;
14799;SDS011;7491;57.750;11.970;2023-06-24T05:44:59;14.38;;;9.50;;
14799;SDS011;7491;57.750;11.970;2023-06-24T05:47:28;15.20;;;8.95;;
14799;SDS011;7491;57.750;11.970;2023-06-24T05:49:54;15.23;;;7.75;;
14799;SDS011;7491;57.750;11.970;2023-06-24T05:52:21;16.50;;;8.50;;
14799;SDS011;7491;57.750;11.970;2023-06-24T05:54:48;12.35;;;8.05;;
14799;SDS011;7491;57.750;11.970;2023-06-24T05:57:15;13.45;;;7.57;;
14799;SDS011;7491;57.750;11.970;2023-06-24T05:59:41;14.15;;;7.82;;
14799;SDS011;7491;57.750;11.970;2023-06-24T06:02:08;18.58;;;8.02;;
14799;SDS011;7491;57.750;11.970;2023-06-24T06:04:37;14.10;;;7.70;;
14799;SDS011;7491;57.750;11.970;2023-06-24T06:07:05;12.55;;;7.57;;
14799;SDS011;7491;57.750;11.970;2023-06-24T06:09:32;16.77;;;7.40;;
14799;SDS011;7491;57.750;11.970;2023-06-24T06:11:58;13.13;;;8.02;;
14799;SDS011;7491;57.750;11.970;2023-06-24T06:14:25;19.23;;;8.15;;
14799;SDS011;7491;57.750;11.970;2023-06-24T06:16:52;10.88;;;7.07;;
14799;SDS011;7491;57.750;11.970;2023-06-24T06:19:18;12.75;;;7.68;;
14799;SDS011;7491;57.750;11.970;2023-06-24T06:21:47;12.98;;;6.72;;
14799;SDS011;7491;57.750;11.970;2023-06-24T06:24:15;11.63;;;7.75;;
14799;SDS011;7491;57.750;11.970;2023-06-24T06:26:42;12.65;;;7.60;;
14799;SDS011;7491;57.750;11.970;2023-06-24T06:29:09;12.15;;;7.13;;
14799;SDS011;7491;57.750;11.970;2023-06-24T06:31:36;19.05;;;6.85;;
14799;SDS011;7491;57.750;11.970;2023-06-24T06:34:03;14.40;;;7.70;;
14799;SDS011;7491;57.750;11.970;2023-06-24T06:36:30;11.88;;;7.18;;
14799;SDS011;7491;57.750;11.970;2023-06-24T06:38:58;17.52;;;6.75;;
14799;SDS011;7491;57.750;11.970;2023-06-24T06:41:25;11.75;;;6.63;;
14799;SDS011;7491;57.750;11.970;2023-06-24T06:43:52;13.23;;;6.55;;
14799;SDS011;7491;57.750;11.970;2023-06-24T06:46:19;13.00;;;6.93;;
14799;SDS011;7491;57.750;11.970;2023-06-24T06:48:46;11.80;;;6.85;;
14799;SDS011;7491;57.750;11.970;2023-06-24T06:51:13;10.10;;;6.43;;
14799;SDS011;7491;57.750;11.970;2023-06-24T06:53:40;14.35;;;6.95;;
14799;SDS011;7491;57.750;11.970;2023-06-24T06:56:08;11.60;;;6.47;;
14799;SDS011;7491;57.750;11.970;2023-06-24T06:58:35;10.07;;;6.38;;
14799;SDS011;7491;57.750;11.970;2023-06-24T07:01:01;9.32;;;5.55;;
14799;SDS011;7491;57.750;11.970;2023-06-24T07:03:30;13.00;;;6.70;;
14799;SDS011;7491;57.750;11.970;2023-06-24T07:05:56;11.52;;;5.93;;
14799;SDS011;7491;57.750;11.970;2023-06-24T07:08:23;8.55;;;5.60;;
14799;SDS011;7491;57.750;11.970;2023-06-24T07:10:50;10.80;;;6.60;;
14799;SDS011;7491;57.750;11.970;2023-06-24T07:13:18;11.20;;;5.95;;
14799;SDS011;7491;57.750;11.970;2023-06-24T07:15:45;10.48;;;6.35;;
14799;SDS011;7491;57.750;11.970;2023-06-24T07:18:12;11.48;;;6.28;;
14799;SDS011;7491;57.750;11.970;2023-06-24T07:20:38;12.52;;;6.97;;
14799;SDS011;7491;57.750;11.970;2023-06-24T07:23:05;13.68;;;6.95;;
14799;SDS011;7491;57.750;11.970;2023-06-24T07:25:32;12.68;;;6.65;;
14799;SDS011;7491;57.750;11.970;2023-06-24T07:27:59;10.50;;;6.15;;
14799;SDS011;7491;57.750;11.970;2023-06-24T07:30:27;12.57;;;6.25;;
14799;SDS011;7491;57.750;11.970;2023-06-24T07:32:54;11.57;;;6.07;;
14799;SDS011;7491;57.750;11.970;2023-06-24T07:35:21;11.35;;;6.70;;
14799;SDS011;7491;57.750;11.970;2023-06-24T07:37:47;12.70;;;5.97;;
14799;SDS011;7491;57.750;11.970;2023-06-24T07:40:14;10.65;;;6.10;;
14799;SDS011;7491;57.750;11.970;2023-06-24T07:42:41;13.70;;;6.03;;
14799;SDS011;7491;57.750;11.970;2023-06-24T07:45:08;11.52;;;6.47;;
14799;SDS011;7491;57.750;11.970;2023-06-24T07:47:37;9.38;;;6.05;;
14799;SDS011;7491;57.750;11.970;2023-06-24T07:50:04;9.15;;;5.97;;
14799;SDS011;7491;57.750;11.970;2023-06-24T07:52:32;9.90;;;6.03;;
14799;SDS011;7491;57.750;11.970;2023-06-24T07:54:59;9.60;;;6.25;;
14799;SDS011;7491;57.750;11.970;2023-06-24T07:57:26;11.13;;;5.93;;
14799;SDS011;7491;57.750;11.970;2023-06-24T07:59:53;12.65;;;7.22;;
14799;SDS011;7491;57.750;11.970;2023-06-24T08:02:20;13.27;;;6.57;;
14799;SDS011;7491;57.750;11.970;2023-06-24T08:04:48;12.20;;;5.82;;
14799;SDS011;7491;57.750;11.970;2023-06-24T08:07:15;13.02;;;6.50;;
14799;SDS011;7491;57.750;11.970;2023-06-24T08:09:41;9.18;;;6.35;;
14799;SDS011;7491;57.750;11.970;2023-06-24T08:12:09;11.63;;;6.43;;
14799;SDS011;7491;57.750;11.970;2023-06-24T08:14:38;15.32;;;7.80;;
14799;SDS011;7491;57.750;11.970;2023-06-24T08:17:05;12.18;;;6.57;;
14799;SDS011;7491;57.750;11.970;2023-06-24T08:19:32;10.18;;;6.38;;
14799;SDS011;7491;57.750;11.970;2023-06-24T08:22:00;15.18;;;7.03;;
14799;SDS011;7491;57.750;11.970;2023-06-24T08:24:27;16.05;;;6.93;;
14799;SDS011;7491;57.750;11.970;2023-06-24T08:26:54;15.63;;;7.07;;
14799;SDS011;7491;57.750;11.970;2023-06-24T08:29:21;11.73;;;6.22;;
14799;SDS011;7491;57.750;11.970;2023-06-24T08:31:47;13.85;;;7.72;;
14799;SDS011;7491;57.750;11.970;2023-06-24T08:34:14;15.45;;;7.18;;
14799;SDS011;7491;57.750;11.970;2023-06-24T08:36:41;15.50;;;7.28;;
14799;SDS011;7491;57.750;11.970;2023-06-24T08:39:09;12.27;;;6.82;;
14799;SDS011;7491;57.750;11.970;2023-06-24T08:41:35;12.02;;;6.80;;
14799;SDS011;7491;57.750;11.970;2023-06-24T08:44:03;17.65;;;7.65;;
14799;SDS011;7491;57.750;11.970;2023-06-24T08:46:29;13.32;;;7.40;;
14799;SDS011;7491;57.750;11.970;2023-06-24T08:48:59;11.90;;;7.22;;
14799;SDS011;7491;57.750;11.970;2023-06-24T08:51:33;15.25;;;7.53;;
14799;SDS011;7491;57.750;11.970;2023-06-24T08:54:05;16.35;;;7.50;;
14799;SDS011;7491;57.750;11.970;2023-06-24T08:56:37;13.30;;;6.72;;
14799;SDS011;7491;57.750;11.970;2023-06-24T08:59:04;16.98;;;6.25;;
14799;SDS011;7491;57.750;11.970;2023-06-24T09:01:32;15.40;;;6.70;;
14799;SDS011;7491;57.750;11.970;2023-06-24T09:03:58;10.40;;;6.82;;
14799;SDS011;7491;57.750;11.970;2023-06-24T09:06:25;13.18;;;6.88;;
14799;SDS011;7491;57.750;11.970;2023-06-24T09:08:52;12.05;;;6.28;;
14799;SDS011;7491;57.750;11.970;2023-06-24T09:11:22;12.00;;;6.63;;
14799;SDS011;7491;57.750;11.970;2023-06-24T09:13:55;10.40;;;5.75;;
14799;SDS011;7491;57.750;11.970;2023-06-24T09:16:22;11.43;;;6.45;;
14799;SDS011;7491;57.750;11.970;2023-06-24T09:18:50;15.80;;;7.63;;
14799;SDS011;7491;57.750;11.970;2023-06-24T09:21:21;14.07;;;7.15;;
14799;SDS011;7491;57.750;11.970;2023-06-24T09:23:51;13.18;;;6.30;;
14799;SDS011;7491;57.750;11.970;2023-06-24T09:26:19;13.73;;;6.72;;
14799;SDS011;7491;57.750;11.970;2023-06-24T09:28:47;10.02;;;5.90;;
14799;SDS011;7491;57.750;11.970;2023-06-24T09:31:15;12.23;;;6.60;;
14799;SDS011;7491;57.750;11.970;2023-06-24T09:33:44;9.80;;;6.10;;
14799;SDS011;7491;57.750;11.970;2023-06-24T09:36:14;10.75;;;6.10;;
14799;SDS011;7491;57.750;11.970;2023-06-24T09:38:42;15.27;;;5.90;;
14799;SDS011;7491;57.750;11.970;2023-06-24T09:41:13;8.38;;;6.10;;
14799;SDS011;7491;57.750;11.970;2023-06-24T09:43:41;16.30;;;6.43;;
14799;SDS011;7491;57.750;11.970;2023-06-24T09:46:09;12.70;;;6.00;;
14799;SDS011;7491;57.750;11.970;2023-06-24T09:48:38;12.70;;;6.40;;
14799;SDS011;7491;57.750;11.970;2023-06-24T09:51:05;12.07;;;6.18;;
14799;SDS011;7491;57.750;11.970;2023-06-24T09:53:33;11.38;;;6.40;;
14799;SDS011;7491;57.750;11.970;2023-06-24T09:56:01;10.85;;;5.90;;
14799;SDS011;7491;57.750;11.970;2023-06-24T10:00:58;11.02;;;5.68;;
14799;SDS011;7491;57.750;11.970;2023-06-24T10:03:29;10.35;;;5.47;;
14799;SDS011;7491;57.750;11.970;2023-06-24T10:05:59;13.88;;;6.05;;
14799;SDS011;7491;57.750;11.970;2023-06-24T10:08:27;10.27;;;6.20;;
14799;SDS011;7491;57.750;11.970;2023-06-24T10:10:55;11.77;;;5.70;;
14799;SDS011;7491;57.750;11.970;2023-06-24T10:13:21;14.85;;;6.18;;
14799;SDS011;7491;57.750;11.970;2023-06-24T10:15:48;11.02;;;6.20;;
14799;SDS011;7491;57.750;11.970;2023-06-24T10:21:07;14.70;;;6.35;;
14799;SDS011;7491;57.750;11.970;2023-06-24T10:23:38;12.10;;;6.18;;
14799;SDS011;7491;57.750;11.970;2023-06-24T10:26:07;10.52;;;5.47;;
14799;SDS011;7491;57.750;11.970;2023-06-24T10:34:20;11.77;;;5.43;;
14799;SDS011;7491;57.750;11.970;2023-06-24T10:36:54;12.25;;;5.93;;
14799;SDS011;7491;57.750;11.970;2023-06-24T10:39:34;9.98;;;5.70;;
14799;SDS011;7491;57.750;11.970;2023-06-24T10:44:58;11.27;;;5.60;;
14799;SDS011;7491;57.750;11.970;2023-06-24T10:47:27;9.82;;;5.70;;
14799;SDS011;7491;57.750;11.970;2023-06-24T10:49:55;11.43;;;5.95;;
14799;SDS011;7491;57.750;11.970;2023-06-24T10:52:24;9.85;;;5.40;;
14799;SDS011;7491;57.750;11.970;2023-06-24T10:54:51;11.57;;;5.57;;
14799;SDS011;7491;57.750;11.970;2023-06-24T10:57:22;9.27;;;5.55;;
14799;SDS011;7491;57.750;11.970;2023-06-24T10:59:50;11.43;;;5.13;;
14799;SDS011;7491;57.750;11.970;2023-06-24T11:02:18;9.05;;;5.10;;
14799;SDS011;7491;57.750;11.970;2023-06-24T11:04:46;10.57;;;5.32;;
14799;SDS011;7491;57.750;11.970;2023-06-24T11:07:16;12.65;;;5.40;;
14799;SDS011;7491;57.750;11.970;2023-06-24T11:09:49;10.18;;;5.35;;
14799;SDS011;7491;57.750;11.970;2023-06-24T11:12:17;10.02;;;5.00;;
14799;SDS011;7491;57.750;11.970;2023-06-24T11:14:44;7.68;;;4.63;;
14799;SDS011;7491;57.750;11.970;2023-06-24T11:17:11;11.60;;;4.90;;
14799;SDS011;7491;57.750;11.970;2023-06-24T11:19:38;9.73;;;4.75;;
14799;SDS011;7491;57.750;11.970;2023-06-24T11:22:06;9.88;;;5.13;;
14799;SDS011;7491;57.750;11.970;2023-06-24T11:24:33;9.27;;;5.18;;
14799;SDS011;7491;57.750;11.970;2023-06-24T11:27:03;10.68;;;5.55;;
14799;SDS011;7491;57.750;11.970;2023-06-24T11:29:31;11.23;;;5.57;;
14799;SDS011;7491;57.750;11.970;2023-06-24T11:31:59;11.43;;;5.32;;
14799;SDS011;7491;57.750;11.970;2023-06-24T11:34:26;11.57;;;4.93;;
14799;SDS011;7491;57.750;11.970;2023-06-24T11:36:53;9.40;;;4.65;;
14799;SDS011;7491;57.750;11.970;2023-06-24T11:39:20;12.15;;;5.63;;
14799;SDS011;7491;57.750;11.970;2023-06-24T11:41:48;12.18;;;4.93;;
14799;SDS011;7491;57.750;11.970;2023-06-24T11:44:18;11.85;;;5.15;;
14799;SDS011;7491;57.750;11.970;2023-06-24T11:46:46;11.52;;;4.82;;
14799;SDS011;7491;57.750;11.970;2023-06-24T11:49:13;9.55;;;4.75;;
14799;SDS011;7491;57.750;11.970;2023-06-24T11:51:45;12.07;;;4.93;;
14799;SDS011;7491;57.750;11.970;2023-06-24T11:54:14;10.82;;;4.60;;
14799;SDS011;7491;57.750;11.970;2023-06-24T11:56:42;11.20;;;5.13;;
14799;SDS011;7491;57.750;11.970;2023-06-24T11:59:19;11.02;;;5.07;;
14799;SDS011;7491;57.750;11.970;2023-06-24T12:01:52;10.02;;;5.40;;
14799;SDS011;7491;57.750;11.970;2023-06-24T12:04:20;12.52;;;5.43;;
14799;SDS011;7491;57.750;11.970;2023-06-24T12:06:47;10.45;;;5.68;;
14799;SDS011;7491;57.750;11.970;2023-06-24T12:09:14;11.95;;;5.30;;
14799;SDS011;7491;57.750;11.970;2023-06-24T12:11:42;12.00;;;5.20;;
14799;SDS011;7491;57.750;11.970;2023-06-24T12:14:09;8.98;;;5.43;;
14799;SDS011;7491;57.750;11.970;2023-06-24T12:16:37;12.20;;;5.43;;
14799;SDS011;7491;57.750;11.970;2023-06-24T12:19:06;11.25;;;4.57;;
14799;SDS011;7491;57.750;11.970;2023-06-24T12:21:33;9.35;;;4.95;;
14799;SDS011;7491;57.750;11.970;2023-06-24T12:24:00;9.43;;;5.40;;
14799;SDS011;7491;57.750;11.970;2023-06-24T12:26:27;10.85;;;5.90;;
14799;SDS011;7491;57.750;11.970;2023-06-24T12:28:54;11.60;;;4.80;;
14799;SDS011;7491;57.750;11.970;2023-06-24T12:31:22;16.20;;;5.45;;
14799;SDS011;7491;57.750;11.970;2023-06-24T12:33:50;11.38;;;5.70;;
14799;SDS011;7491;57.750;11.970;2023-06-24T12:36:17;12.85;;;5.07;;
14799;SDS011;7491;57.750;11.970;2023-06-24T12:38:44;10.13;;;4.50;;
14799;SDS011;7491;57.750;11.970;2023-06-24T12:41:10;12.20;;;4.80;;
14799;SDS011;7491;57.750;11.970;2023-06-24T12:43:37;8.50;;;4.10;;
14799;SDS011;7491;57.750;11.970;2023-06-24T12:46:04;11.45;;;3.85;;
14799;SDS011;7491;57.750;11.970;2023-06-24T12:48:31;14.07;;;4.97;;
14799;SDS011;7491;57.750;11.970;2023-06-24T12:50:59;8.68;;;4.47;;
14799;SDS011;7491;57.750;11.970;2023-06-24T12:53:37;8.80;;;4.70;;
14799;SDS011;7491;57.750;11.970;2023-06-24T12:56:06;8.98;;;4.85;;
14799;SDS011;7491;57.750;11.970;2023-06-24T12:58:34;11.32;;;4.82;;
14799;SDS011;7491;57.750;11.970;2023-06-24T13:01:05;7.80;;;4.07;;
14799;SDS011;7491;57.750;11.970;2023-06-24T13:03:32;9.25;;;4.88;;
14799;SDS011;7491;57.750;11.970;2023-06-24T13:06:02;9.00;;;3.92;;
14799;SDS011;7491;57.750;11.970;2023-06-24T13:08:43;8.98;;;4.65;;
14799;SDS011;7491;57.750;11.970;2023-06-24T13:11:12;12.63;;;4.43;;
14799;SDS011;7491;57.750;11.970;2023-06-24T13:13:39;11.48;;;4.72;;
14799;SDS011;7491;57.750;11.970;2023-06-24T13:16:06;9.20;;;4.50;;
14799;SDS011;7491;57.750;11.970;2023-06-24T13:18:35;12.70;;;4.88;;
14799;SDS011;7491;57.750;11.970;2023-06-24T13:21:06;10.32;;;4.90;;
14799;SDS011;7491;57.750;11.970;2023-06-24T13:23:33;8.40;;;4.47;;
14799;SDS011;7491;57.750;11.970;2023-06-24T13:26:02;8.60;;;4.60;;
14799;SDS011;7491;57.750;11.970;2023-06-24T13:28:29;10.43;;;5.10;;
14799;SDS011;7491;57.750;11.970;2023-06-24T13:30:56;10.70;;;4.90;;
14799;SDS011;7491;57.750;11.970;2023-06-24T13:33:28;8.85;;;4.88;;
14799;SDS011;7491;57.750;11.970;2023-06-24T13:36:01;13.88;;;5.10;;
14799;SDS011;7491;57.750;11.970;2023-06-24T13:38:29;9.68;;;5.00;;
14799;SDS011;7491;57.750;11.970;2023-06-24T13:40:56;11.40;;;5.63;;
14799;SDS011;7491;57.750;11.970;2023-06-24T13:43:23;15.27;;;6.13;;
14799;SDS011;7491;57.750;11.970;2023-06-24T13:45:50;13.15;;;5.80;;
14799;SDS011;7491;57.750;11.970;2023-06-24T13:48:17;9.45;;;4.95;;
14799;SDS011;7491;57.750;11.970;2023-06-24T13:50:44;11.68;;;5.47;;
14799;SDS011;7491;57.750;11.970;2023-06-24T13:53:11;15.00;;;5.78;;
14799;SDS011;7491;57.750;11.970;2023-06-24T13:55:39;14.80;;;6.32;;
14799;SDS011;7491;57.750;11.970;2023-06-24T13:58:06;23.83;;;6.28;;
14799;SDS011;7491;57.750;11.970;2023-06-24T14:00:34;9.55;;;5.00;;
14799;SDS011;7491;57.750;11.970;2023-06-24T14:03:01;10.98;;;5.53;;
14799;SDS011;7491;57.750;11.970;2023-06-24T14:05:35;9.02;;;5.25;;
14799;SDS011;7491;57.750;11.970;2023-06-24T14:08:02;8.65;;;5.13;;
14799;SDS011;7491;57.750;11.970;2023-06-24T14:10:29;13.35;;;5.60;;
14799;SDS011;7491;57.750;11.970;2023-06-24T14:12:57;12.80;;;5.72;;
14799;SDS011;7491;57.750;11.970;2023-06-24T14:15:27;11.93;;;4.93;;
14799;SDS011;7491;57.750;11.970;2023-06-24T14:17:53;9.60;;;4.93;;
14799;SDS011;7491;57.750;11.970;2023-06-24T14:20:20;9.88;;;4.82;;
14799;SDS011;7491;57.750;11.970;2023-06-24T14:22:47;7.03;;;5.03;;
14799;SDS011;7491;57.750;11.970;2023-06-24T14:25:14;13.07;;;4.72;;
14799;SDS011;7491;57.750;11.970;2023-06-24T14:27:40;9.18;;;4.57;;
14799;SDS011;7491;57.750;11.970;2023-06-24T14:30:09;11.70;;;4.93;;
14799;SDS011;7491;57.750;11.970;2023-06-24T14:32:37;9.98;;;4.18;;
14799;SDS011;7491;57.750;11.970;2023-06-24T14:35:04;12.20;;;4.15;;
14799;SDS011;7491;57.750;11.970;2023-06-24T14:37:31;12.85;;;4.55;;
14799;SDS011;7491;57.750;11.970;2023-06-24T14:39:58;13.75;;;4.75;;
14799;SDS011;7491;57.750;11.970;2023-06-24T14:42:25;11.80;;;4.13;;
14799;SDS011;7491;57.750;11.970;2023-06-24T14:44:51;9.90;;;4.05;;
14799;SDS011;7491;57.750;11.970;2023-06-24T14:47:20;12.20;;;4.47;;
14799;SDS011;7491;57.750;11.970;2023-06-24T14:49:46;10.10;;;4.00;;
14799;SDS011;7491;57.750;11.970;2023-06-24T14:52:13;7.82;;;4.03;;
14799;SDS011;7491;57.750;11.970;2023-06-24T14:54:43;8.55;;;3.95;;